Darstellungsparameter: Aktuell verwendete Einstellungen:
Skalierung der Graphiken ... ?
xyx+y,   Skalierungsfaktor:      Skalierung: Modus: x, Faktor: 1
Darstellungszeitraum ... ?
Vom - - bis: - -   Zeitraum: 27.09.2020 - 27.09.2020
Min/Max/Avg-Anzeige ... ?
Zeige MMA aktuell
Zeige MMA Monat
Zeige MMA alles
Zeige --A aktuell
Zeige --A Monat
Zeige --A alles
Keine MMA-Anzeige
MMA:
Minimum Maximum Average (ber die Originaldaten)
MMA-Basis: 27.09.2020 - 27.09.2020
Quicknavigation für Darstellung... ?
Tage:      1T, 2T, 3T, 5T -1T -2T -3T -5T +1T +2T +3T +5T
Wochen: 1W, 2W, 3W -1W -2W -3W +1W +2W +3W
Monate: 1M, 3M, 6M -1M -3M -6M +1M +3M +6M
Jahre:    1J, 3J, 5J, 10J -1J -3J -5J -10J +1J +3J +5J +10J
Nutze für die Darstellung ... ?
Originaldaten oder Mittelwerte auf ...
Stundenbasis Tagesbasis Wochenbasis
Monatsbasis Jahresbasis      Datenbasis: Original-Daten
Darstellen als:
Statistik (Auto) Statistik J:M      Darstellung:
Zur Graphik,    zurück zur Übersicht aller Sensoren.
 
Tabellarische Datenbersicht: ?
 
Sensor: Nr:Datum:Temp:Abs-Feuchte:Windchill:Wind:
Aussen-T/F 1 27-09-2020 00:00:00 9.6 C 8.7 g/m*3 9.6 C 4.8 km/h
2 27-09-2020 00:05:00 9.6 C 8.7 g/m*3 9.6 C 4.8 km/h
3 27-09-2020 00:10:00 9.5 C 8.65 g/m*3 9.5 C 4.8 km/h
4 27-09-2020 00:15:00 9.4 C 8.59 g/m*3 9.4 C 4.8 km/h
5 27-09-2020 00:20:00 9.4 C 8.59 g/m*3 9.4 C 4.8 km/h
6 27-09-2020 00:25:00 9.4 C 8.59 g/m*3 9.4 C 1.6 km/h
7 27-09-2020 00:30:00 9.3 C 8.54 g/m*3 9.3 C 3.2 km/h
8 27-09-2020 00:35:00 9.3 C 8.54 g/m*3 8.56 C 6.4 km/h
9 27-09-2020 00:40:00 9.3 C 8.54 g/m*3 8.56 C 6.4 km/h
10 27-09-2020 00:45:00 9.3 C 8.54 g/m*3 9.3 C 3.2 km/h
11 27-09-2020 00:50:00 9.2 C 8.48 g/m*3 8.45 C 6.4 km/h
12 27-09-2020 00:55:00 9.2 C 8.48 g/m*3 9.2 C 4.8 km/h
13 27-09-2020 01:00:00 9.1 C 8.43 g/m*3 9.1 C 4.8 km/h
14 27-09-2020 01:05:00 9.1 C 8.43 g/m*3 9.1 C 4.8 km/h
15 27-09-2020 01:10:00 9 C 8.38 g/m*3 8.21 C 6.4 km/h
16 27-09-2020 01:15:00 8.9 C 8.32 g/m*3 7.37 C 9.7 km/h
17 27-09-2020 01:20:00 8.9 C 8.32 g/m*3 7.09 C 11.3 km/h
18 27-09-2020 01:25:00 8.8 C 8.27 g/m*3 6.97 C 11.3 km/h
19 27-09-2020 01:30:00 8.8 C 8.36 g/m*3 7.58 C 8.1 km/h
20 27-09-2020 01:35:00 8.8 C 8.36 g/m*3 7.58 C 8.1 km/h
21 27-09-2020 01:40:00 8.8 C 8.36 g/m*3 7.25 C 9.7 km/h
22 27-09-2020 01:45:00 8.8 C 8.27 g/m*3 7.98 C 6.4 km/h
23 27-09-2020 01:50:00 8.8 C 8.36 g/m*3 8.8 C 4.8 km/h
24 27-09-2020 01:55:00 8.8 C 8.36 g/m*3 7.98 C 6.4 km/h
25 27-09-2020 02:00:00 8.8 C 8.36 g/m*3 6.72 C 12.9 km/h
Sensor: Nr:Datum:Temp:Abs-Feuchte:Windchill:Wind:
Aussen-T/F 26 27-09-2020 02:05:00 8.8 C 8.36 g/m*3 7.58 C 8.1 km/h
27 27-09-2020 02:10:00 8.8 C 8.36 g/m*3 7.98 C 6.4 km/h
28 27-09-2020 02:15:00 8.8 C 8.36 g/m*3 7.25 C 9.7 km/h
29 27-09-2020 02:20:00 8.9 C 8.41 g/m*3 6.62 C 14.5 km/h
30 27-09-2020 02:25:00 8.9 C 8.41 g/m*3 6.62 C 14.5 km/h
31 27-09-2020 02:30:00 8.9 C 8.41 g/m*3 7.09 C 11.3 km/h
32 27-09-2020 02:35:00 8.9 C 8.41 g/m*3 8.9 C 4.8 km/h
33 27-09-2020 02:40:00 9 C 8.46 g/m*3 7.81 C 8.1 km/h
34 27-09-2020 02:45:00 9 C 8.46 g/m*3 9 C 3.2 km/h
35 27-09-2020 02:50:00 9.1 C 8.52 g/m*3 8.33 C 6.4 km/h
36 27-09-2020 02:55:00 9.1 C 8.52 g/m*3 8.33 C 6.4 km/h
37 27-09-2020 03:00:00 9.2 C 8.57 g/m*3 9.2 C 3.2 km/h
38 27-09-2020 03:05:00 9.2 C 8.57 g/m*3 8.05 C 8.1 km/h
39 27-09-2020 03:10:00 9.2 C 8.57 g/m*3 7.73 C 9.7 km/h
40 27-09-2020 03:15:00 9.3 C 8.63 g/m*3 9.3 C 3.2 km/h
41 27-09-2020 03:20:00 9.3 C 8.63 g/m*3 9.3 C 4.8 km/h
42 27-09-2020 03:25:00 9.3 C 8.63 g/m*3 9.3 C 3.2 km/h
43 27-09-2020 03:30:00 9.3 C 8.63 g/m*3 9.3 C 3.2 km/h
44 27-09-2020 03:35:00 9.4 C 8.68 g/m*3 9.4 C 3.2 km/h
45 27-09-2020 03:40:00 9.4 C 8.68 g/m*3 8.68 C 6.4 km/h
46 27-09-2020 03:45:00 9.4 C 8.68 g/m*3 9.4 C 3.2 km/h
47 27-09-2020 03:50:00 9.4 C 8.68 g/m*3 8.28 C 8.1 km/h
48 27-09-2020 03:55:00 9.5 C 8.74 g/m*3 8.79 C 6.4 km/h
49 27-09-2020 04:00:00 9.5 C 8.74 g/m*3 9.5 C 3.2 km/h
50 27-09-2020 04:05:00 9.5 C 8.74 g/m*3 8.09 C 9.7 km/h
Sensor: Nr:Datum:Temp:Abs-Feuchte:Windchill:Wind:
Aussen-T/F 51 27-09-2020 04:10:00 9.5 C 8.74 g/m*3 9.5 C 1.6 km/h
52 27-09-2020 04:15:00 9.5 C 8.74 g/m*3 9.5 C 3.2 km/h
53 27-09-2020 04:20:00 9.5 C 8.74 g/m*3 9.5 C 0 km/h
54 27-09-2020 04:25:00 9.5 C 8.74 g/m*3 9.5 C 0 km/h
55 27-09-2020 04:30:00 9.5 C 8.74 g/m*3 9.5 C 0 km/h
56 27-09-2020 04:35:00 9.5 C 8.74 g/m*3 9.5 C 0 km/h
57 27-09-2020 04:40:00 9.5 C 8.74 g/m*3 9.5 C 0 km/h
58 27-09-2020 04:45:00 9.5 C 8.74 g/m*3 9.5 C 0 km/h
59 27-09-2020 04:50:00 9.5 C 8.74 g/m*3 9.5 C 1.6 km/h
60 27-09-2020 04:55:00 9.6 C 8.79 g/m*3 9.6 C 1.6 km/h
61 27-09-2020 05:00:00 9.6 C 8.79 g/m*3 9.6 C 3.2 km/h
62 27-09-2020 05:05:00 9.6 C 8.79 g/m*3 9.6 C 0 km/h
63 27-09-2020 05:10:00 9.6 C 8.79 g/m*3 9.6 C 1.6 km/h
64 27-09-2020 05:15:00 9.6 C 8.79 g/m*3 9.6 C 1.6 km/h
65 27-09-2020 05:20:00 9.6 C 8.79 g/m*3 9.6 C 0 km/h
66 27-09-2020 05:25:00 9.6 C 8.79 g/m*3 9.6 C 1.6 km/h
67 27-09-2020 05:30:00 9.6 C 8.79 g/m*3 9.6 C 0 km/h
68 27-09-2020 05:35:00 9.6 C 8.79 g/m*3 9.6 C 1.6 km/h
69 27-09-2020 05:40:00 9.6 C 8.79 g/m*3 9.6 C 0 km/h
70 27-09-2020 05:45:00 9.6 C 8.79 g/m*3 9.6 C 0 km/h
71 27-09-2020 05:50:00 9.6 C 8.79 g/m*3 9.6 C 0 km/h
72 27-09-2020 05:55:00 9.6 C 8.79 g/m*3 9.6 C 0 km/h
73 27-09-2020 06:00:00 9.6 C 8.79 g/m*3 9.6 C 0 km/h
74 27-09-2020 06:05:00 9.6 C 8.79 g/m*3 9.6 C 0 km/h
75 27-09-2020 06:10:00 9.6 C 8.79 g/m*3 9.6 C 0 km/h
Sensor: Nr:Datum:Temp:Abs-Feuchte:Windchill:Wind:
Aussen-T/F 76 27-09-2020 06:15:00 9.6 C 8.79 g/m*3 9.6 C 0 km/h
77 27-09-2020 06:20:00 9.6 C 8.79 g/m*3 9.6 C 1.6 km/h
78 27-09-2020 06:25:00 9.6 C 8.79 g/m*3 9.6 C 0 km/h
79 27-09-2020 06:30:00 9.6 C 8.79 g/m*3 9.6 C 0 km/h
80 27-09-2020 06:35:00 9.6 C 8.79 g/m*3 9.6 C 0 km/h
81 27-09-2020 06:40:00 9.6 C 8.79 g/m*3 9.6 C 1.6 km/h
82 27-09-2020 06:45:00 9.6 C 8.79 g/m*3 9.6 C 0 km/h
83 27-09-2020 06:50:00 9.6 C 8.79 g/m*3 9.6 C 0 km/h
84 27-09-2020 06:55:00 9.6 C 8.79 g/m*3 9.6 C 0 km/h
85 27-09-2020 07:00:00 9.6 C 8.79 g/m*3 9.6 C 0 km/h
86 27-09-2020 07:05:00 9.6 C 8.79 g/m*3 9.6 C 0 km/h
87 27-09-2020 07:10:00 9.6 C 8.79 g/m*3 9.6 C 0 km/h
88 27-09-2020 07:15:00 9.6 C 8.79 g/m*3 9.6 C 0 km/h
89 27-09-2020 07:20:00 9.6 C 8.79 g/m*3 9.6 C 0 km/h
90 27-09-2020 07:25:00 9.6 C 8.79 g/m*3 9.6 C 0 km/h
91 27-09-2020 07:30:00 9.6 C 8.79 g/m*3 9.6 C 3.2 km/h
92 27-09-2020 07:35:00 9.6 C 8.79 g/m*3 9.6 C 0 km/h
93 27-09-2020 07:40:00 9.6 C 8.79 g/m*3 9.6 C 0 km/h
94 27-09-2020 07:45:00 9.6 C 8.79 g/m*3 9.6 C 0 km/h
95 27-09-2020 07:50:00 9.6 C 8.79 g/m*3 9.6 C 0 km/h
96 27-09-2020 07:55:00 9.6 C 8.79 g/m*3 9.6 C 0 km/h
97 27-09-2020 08:00:00 9.6 C 8.79 g/m*3 9.6 C 0 km/h
98 27-09-2020 08:05:00 9.6 C 8.79 g/m*3 9.6 C 1.6 km/h
99 27-09-2020 08:10:00 9.7 C 8.85 g/m*3 9.7 C 3.2 km/h
100 27-09-2020 08:15:00 9.7 C 8.94 g/m*3 9.7 C 1.6 km/h
Sensor: Nr:Datum:Temp:Abs-Feuchte:Windchill:Wind:
Aussen-T/F 101 27-09-2020 08:20:00 9.7 C 8.94 g/m*3 9.02 C 6.4 km/h
102 27-09-2020 08:25:00 9.7 C 8.94 g/m*3 9.7 C 0 km/h
103 27-09-2020 08:30:00 9.8 C 9 g/m*3 9.8 C 0 km/h
104 27-09-2020 08:35:00 9.8 C 9 g/m*3 9.8 C 0 km/h
105 27-09-2020 08:40:00 9.8 C 8.91 g/m*3 9.8 C 0 km/h
106 27-09-2020 08:45:00 9.9 C 8.96 g/m*3 9.9 C 0 km/h
107 27-09-2020 08:50:00 10.1 C 9.17 g/m*3 10.1 C 4.8 km/h
108 27-09-2020 08:55:00 10.2 C 9.23 g/m*3 10.2 C 0 km/h
109 27-09-2020 09:00:00 10.3 C 9.29 g/m*3 10.3 C 1.6 km/h
110 27-09-2020 09:05:00 10.4 C 9.35 g/m*3 10.4 C 1.6 km/h
111 27-09-2020 09:10:00 10.4 C 9.35 g/m*3 10.4 C 0 km/h
112 27-09-2020 09:15:00 10.4 C 9.35 g/m*3 10.4 C 0 km/h
113 27-09-2020 09:20:00 10.6 C 9.47 g/m*3 10.6 C 0 km/h
114 27-09-2020 09:25:00 10.6 C 9.37 g/m*3 10.6 C 3.2 km/h
115 27-09-2020 09:30:00 10.6 C 9.37 g/m*3 10.6 C 4.8 km/h
116 27-09-2020 09:35:00 10.7 C 9.43 g/m*3 10.7 C 4.8 km/h
117 27-09-2020 09:40:00 10.7 C 9.53 g/m*3 10.7 C 1.6 km/h
118 27-09-2020 09:45:00 10.8 C 9.59 g/m*3 10.8 C 1.6 km/h
119 27-09-2020 09:50:00 10.8 C 9.59 g/m*3 10.8 C 4.8 km/h
120 27-09-2020 09:55:00 10.8 C 9.49 g/m*3 10.8 C 1.6 km/h
121 27-09-2020 10:00:00 10.9 C 9.55 g/m*3 10.9 C 0 km/h
122 27-09-2020 10:05:00 10.9 C 9.55 g/m*3 10.9 C 1.6 km/h
123 27-09-2020 10:10:00 10.9 C 9.55 g/m*3 10.9 C 0 km/h
124 27-09-2020 10:15:00 11 C 9.61 g/m*3 11 C 1.6 km/h
125 27-09-2020 10:20:00 11.1 C 9.67 g/m*3 11.1 C 1.6 km/h
Sensor: Nr:Datum:Temp:Abs-Feuchte:Windchill:Wind:
Aussen-T/F 126 27-09-2020 10:25:00 11.2 C 9.73 g/m*3 11.2 C 0 km/h
127 27-09-2020 10:30:00 11.3 C 9.79 g/m*3 11.3 C 1.6 km/h
128 27-09-2020 10:35:00 11.3 C 9.79 g/m*3 11.3 C 3.2 km/h
129 27-09-2020 10:40:00 11.4 C 9.85 g/m*3 11.4 C 1.6 km/h
130 27-09-2020 10:45:00 11.6 C 9.98 g/m*3 11.6 C 1.6 km/h
131 27-09-2020 10:50:00 11.7 C 10.04 g/m*3 11.7 C 6.4 km/h
132 27-09-2020 10:55:00 11.6 C 9.87 g/m*3 11.6 C 4.8 km/h
133 27-09-2020 11:00:00 11.7 C 9.94 g/m*3 11.7 C 4.8 km/h
134 27-09-2020 11:05:00 11.7 C 9.94 g/m*3 11.7 C 3.2 km/h
135 27-09-2020 11:10:00 11.8 C 10 g/m*3 11.8 C 1.6 km/h
136 27-09-2020 11:15:00 11.9 C 9.96 g/m*3 11.9 C 3.2 km/h
137 27-09-2020 11:20:00 12 C 10.02 g/m*3 12 C 4.8 km/h
138 27-09-2020 11:25:00 12 C 9.91 g/m*3 12 C 6.4 km/h
139 27-09-2020 11:30:00 12.1 C 9.87 g/m*3 12.1 C 4.8 km/h
140 27-09-2020 11:35:00 12.2 C 9.93 g/m*3 12.2 C 4.8 km/h
141 27-09-2020 11:40:00 12.2 C 9.93 g/m*3 12.2 C 6.4 km/h
142 27-09-2020 11:45:00 12.2 C 9.82 g/m*3 12.2 C 6.4 km/h
143 27-09-2020 11:50:00 12.2 C 9.71 g/m*3 12.2 C 4.8 km/h
144 27-09-2020 11:55:00 12.3 C 9.66 g/m*3 12.3 C 9.7 km/h
145 27-09-2020 12:00:00 12.4 C 9.72 g/m*3 12.4 C 1.6 km/h
146 27-09-2020 12:05:00 12.5 C 9.89 g/m*3 12.5 C 6.4 km/h
147 27-09-2020 12:10:00 12.7 C 9.91 g/m*3 12.7 C 6.4 km/h
148 27-09-2020 12:15:00 12.7 C 9.8 g/m*3 12.7 C 6.4 km/h
149 27-09-2020 12:20:00 12.7 C 9.8 g/m*3 12.7 C 3.2 km/h
150 27-09-2020 12:25:00 12.7 C 9.68 g/m*3 12.7 C 3.2 km/h
Sensor: Nr:Datum:Temp:Abs-Feuchte:Windchill:Wind:
Aussen-T/F 151 27-09-2020 12:30:00 12.7 C 9.8 g/m*3 12.7 C 11.3 km/h
152 27-09-2020 12:35:00 12.6 C 9.74 g/m*3 12.6 C 9.7 km/h
153 27-09-2020 12:40:00 12.5 C 9.89 g/m*3 12.5 C 3.2 km/h
154 27-09-2020 12:45:00 12.6 C 9.96 g/m*3 12.6 C 4.8 km/h
155 27-09-2020 12:50:00 12.6 C 9.96 g/m*3 12.6 C 4.8 km/h
156 27-09-2020 12:55:00 12.7 C 10.02 g/m*3 12.7 C 4.8 km/h
157 27-09-2020 13:00:00 12.8 C 10.08 g/m*3 12.8 C 4.8 km/h
158 27-09-2020 13:05:00 12.9 C 10.03 g/m*3 12.9 C 1.6 km/h
159 27-09-2020 13:10:00 13.1 C 10.04 g/m*3 13.1 C 9.7 km/h
160 27-09-2020 13:15:00 13.2 C 10.1 g/m*3 13.2 C 12.9 km/h
161 27-09-2020 13:20:00 13.2 C 9.87 g/m*3 13.2 C 8.1 km/h
162 27-09-2020 13:25:00 13.3 C 9.94 g/m*3 13.3 C 8.1 km/h
163 27-09-2020 13:30:00 13.3 C 9.94 g/m*3 13.3 C 6.4 km/h
164 27-09-2020 13:35:00 13.4 C 9.88 g/m*3 13.4 C 4.8 km/h
165 27-09-2020 13:40:00 13.6 C 10 g/m*3 13.6 C 8.1 km/h
166 27-09-2020 13:45:00 13.7 C 10.07 g/m*3 13.7 C 6.4 km/h
167 27-09-2020 13:50:00 13.6 C 10 g/m*3 13.6 C 8.1 km/h
168 27-09-2020 13:55:00 13.6 C 10 g/m*3 13.6 C 1.6 km/h
169 27-09-2020 14:00:00 13.5 C 9.71 g/m*3 13.5 C 6.4 km/h
170 27-09-2020 14:05:00 13.5 C 9.71 g/m*3 13.5 C 4.8 km/h
171 27-09-2020 14:10:00 13.6 C 9.77 g/m*3 13.6 C 6.4 km/h
172 27-09-2020 14:15:00 13.6 C 9.53 g/m*3 13.6 C 12.9 km/h
173 27-09-2020 14:20:00 13.6 C 9.65 g/m*3 13.6 C 4.8 km/h
174 27-09-2020 14:25:00 13.7 C 9.59 g/m*3 13.7 C 6.4 km/h
175 27-09-2020 14:30:00 13.8 C 9.65 g/m*3 13.8 C 3.2 km/h
Sensor: Nr:Datum:Temp:Abs-Feuchte:Windchill:Wind:
Aussen-T/F 176 27-09-2020 14:35:00 13.8 C 9.41 g/m*3 13.8 C 6.4 km/h
177 27-09-2020 14:40:00 13.8 C 9.41 g/m*3 13.8 C 3.2 km/h
178 27-09-2020 14:45:00 13.8 C 9.53 g/m*3 13.8 C 6.4 km/h
179 27-09-2020 14:50:00 13.8 C 9.65 g/m*3 13.8 C 9.7 km/h
180 27-09-2020 14:55:00 13.8 C 9.41 g/m*3 13.8 C 6.4 km/h
181 27-09-2020 15:00:00 13.8 C 9.41 g/m*3 13.8 C 4.8 km/h
182 27-09-2020 15:05:00 13.8 C 9.53 g/m*3 13.8 C 6.4 km/h
183 27-09-2020 15:10:00 13.7 C 9.47 g/m*3 13.7 C 4.8 km/h
184 27-09-2020 15:15:00 13.6 C 9.3 g/m*3 13.6 C 0 km/h
185 27-09-2020 15:20:00 13.5 C 9.36 g/m*3 13.5 C 4.8 km/h
186 27-09-2020 15:25:00 13.4 C 9.3 g/m*3 13.4 C 4.8 km/h
187 27-09-2020 15:30:00 13.3 C 9.24 g/m*3 13.3 C 4.8 km/h
188 27-09-2020 15:35:00 13.2 C 9.3 g/m*3 13.2 C 0 km/h
189 27-09-2020 15:40:00 13.1 C 9.36 g/m*3 13.1 C 3.2 km/h
190 27-09-2020 15:45:00 13.1 C 9.36 g/m*3 13.1 C 0 km/h
191 27-09-2020 15:50:00 13.1 C 9.24 g/m*3 13.1 C 3.2 km/h
192 27-09-2020 15:55:00 13.1 C 9.36 g/m*3 13.1 C 1.6 km/h
193 27-09-2020 16:00:00 13.1 C 9.47 g/m*3 13.1 C 1.6 km/h
194 27-09-2020 16:05:00 13.1 C 9.36 g/m*3 13.1 C 1.6 km/h
195 27-09-2020 16:10:00 13.1 C 9.36 g/m*3 13.1 C 1.6 km/h
196 27-09-2020 16:15:00 13.2 C 9.53 g/m*3 13.2 C 1.6 km/h
197 27-09-2020 16:20:00 13.2 C 9.53 g/m*3 13.2 C 1.6 km/h
198 27-09-2020 16:25:00 13.2 C 9.53 g/m*3 13.2 C 1.6 km/h
199 27-09-2020 16:30:00 13.1 C 9.36 g/m*3 13.1 C 4.8 km/h
200 27-09-2020 16:35:00 13.2 C 9.64 g/m*3 13.2 C 0 km/h
Sensor: Nr:Datum:Temp:Abs-Feuchte:Windchill:Wind:
Aussen-T/F 201 27-09-2020 16:40:00 13.1 C 9.59 g/m*3 13.1 C 0 km/h
202 27-09-2020 16:45:00 13.1 C 9.59 g/m*3 13.1 C 0 km/h
203 27-09-2020 16:50:00 13.1 C 9.47 g/m*3 13.1 C 3.2 km/h
204 27-09-2020 16:55:00 13.1 C 9.59 g/m*3 13.1 C 1.6 km/h
205 27-09-2020 17:00:00 13.1 C 9.47 g/m*3 13.1 C 0 km/h
206 27-09-2020 17:05:00 13.1 C 9.59 g/m*3 13.1 C 0 km/h
207 27-09-2020 17:10:00 13.1 C 9.59 g/m*3 13.1 C 0 km/h
208 27-09-2020 17:15:00 13.1 C 9.59 g/m*3 13.1 C 0 km/h
209 27-09-2020 17:20:00 13.1 C 9.81 g/m*3 13.1 C 0 km/h
210 27-09-2020 17:25:00 13.2 C 9.99 g/m*3 13.2 C 0 km/h
211 27-09-2020 17:30:00 13.2 C 9.99 g/m*3 13.2 C 0 km/h
212 27-09-2020 17:35:00 13.2 C 9.99 g/m*3 13.2 C 0 km/h
213 27-09-2020 17:40:00 13.1 C 9.93 g/m*3 13.1 C 0 km/h
214 27-09-2020 17:45:00 13.1 C 9.93 g/m*3 13.1 C 0 km/h
215 27-09-2020 17:50:00 13 C 9.87 g/m*3 13 C 0 km/h
216 27-09-2020 17:55:00 12.9 C 9.92 g/m*3 12.9 C 0 km/h
217 27-09-2020 18:00:00 12.8 C 9.86 g/m*3 12.8 C 0 km/h
218 27-09-2020 18:05:00 12.8 C 9.86 g/m*3 12.8 C 0 km/h
219 27-09-2020 18:10:00 12.7 C 9.91 g/m*3 12.7 C 0 km/h
220 27-09-2020 18:15:00 12.7 C 9.91 g/m*3 12.7 C 0 km/h
221 27-09-2020 18:20:00 12.6 C 9.85 g/m*3 12.6 C 0 km/h
222 27-09-2020 18:25:00 12.5 C 9.78 g/m*3 12.5 C 1.6 km/h
223 27-09-2020 18:30:00 12.4 C 9.72 g/m*3 12.4 C 1.6 km/h
224 27-09-2020 18:35:00 12.3 C 9.66 g/m*3 12.3 C 3.2 km/h
225 27-09-2020 18:40:00 12.2 C 9.6 g/m*3 12.2 C 4.8 km/h
Sensor: Nr:Datum:Temp:Abs-Feuchte:Windchill:Wind:
Aussen-T/F 226 27-09-2020 18:45:00 12 C 9.48 g/m*3 12 C 4.8 km/h
227 27-09-2020 18:50:00 11.9 C 9.43 g/m*3 11.9 C 4.8 km/h
228 27-09-2020 18:55:00 11.8 C 9.37 g/m*3 11.8 C 4.8 km/h
229 27-09-2020 19:00:00 11.7 C 9.31 g/m*3 11.7 C 1.6 km/h
230 27-09-2020 19:05:00 11.6 C 9.35 g/m*3 11.6 C 1.6 km/h
231 27-09-2020 19:10:00 11.6 C 9.35 g/m*3 11.6 C 1.6 km/h
232 27-09-2020 19:15:00 11.4 C 9.24 g/m*3 11.4 C 1.6 km/h
233 27-09-2020 19:20:00 11.4 C 9.24 g/m*3 11.4 C 3.2 km/h
234 27-09-2020 19:25:00 11.3 C 9.18 g/m*3 11.3 C 3.2 km/h
235 27-09-2020 19:30:00 11.2 C 9.12 g/m*3 11.2 C 3.2 km/h
236 27-09-2020 19:35:00 11.2 C 9.12 g/m*3 11.2 C 1.6 km/h
237 27-09-2020 19:40:00 11.2 C 9.22 g/m*3 11.2 C 1.6 km/h
238 27-09-2020 19:45:00 11.2 C 9.22 g/m*3 11.2 C 3.2 km/h
239 27-09-2020 19:50:00 11.1 C 9.17 g/m*3 11.1 C 3.2 km/h
240 27-09-2020 19:55:00 11.1 C 9.17 g/m*3 11.1 C 3.2 km/h
241 27-09-2020 20:00:00 11.1 C 9.17 g/m*3 11.1 C 3.2 km/h
242 27-09-2020 20:05:00 11 C 9.11 g/m*3 11 C 1.6 km/h
243 27-09-2020 20:10:00 11 C 9.11 g/m*3 11 C 0 km/h
244 27-09-2020 20:15:00 10.9 C 9.15 g/m*3 10.9 C 1.6 km/h
245 27-09-2020 20:20:00 10.9 C 9.15 g/m*3 10.9 C 1.6 km/h
246 27-09-2020 20:25:00 10.9 C 9.15 g/m*3 10.9 C 3.2 km/h
247 27-09-2020 20:30:00 10.9 C 9.15 g/m*3 10.9 C 3.2 km/h
248 27-09-2020 20:35:00 10.8 C 9.09 g/m*3 10.8 C 1.6 km/h
249 27-09-2020 20:40:00 10.8 C 9.09 g/m*3 10.8 C 3.2 km/h
250 27-09-2020 20:45:00 10.8 C 9.09 g/m*3 10.8 C 1.6 km/h
Sensor: Nr:Datum:Temp:Abs-Feuchte:Windchill:Wind:
Aussen-T/F 251 27-09-2020 20:50:00 10.8 C 9.09 g/m*3 10.8 C 1.6 km/h
252 27-09-2020 20:55:00 10.8 C 9.09 g/m*3 10.8 C 1.6 km/h
253 27-09-2020 21:00:00 10.8 C 9.09 g/m*3 10.8 C 0 km/h
254 27-09-2020 21:05:00 10.8 C 9.09 g/m*3 10.8 C 0 km/h
255 27-09-2020 21:10:00 10.8 C 9.19 g/m*3 10.8 C 0 km/h
256 27-09-2020 21:15:00 10.8 C 9.19 g/m*3 10.8 C 3.2 km/h
257 27-09-2020 21:20:00 10.8 C 9.19 g/m*3 10.8 C 3.2 km/h
258 27-09-2020 21:25:00 10.7 C 9.13 g/m*3 10.7 C 3.2 km/h
259 27-09-2020 21:30:00 10.7 C 9.13 g/m*3 10.7 C 1.6 km/h
260 27-09-2020 21:35:00 10.7 C 9.13 g/m*3 10.7 C 0 km/h
261 27-09-2020 21:40:00 10.7 C 9.13 g/m*3 10.7 C 0 km/h
262 27-09-2020 21:45:00 10.7 C 9.13 g/m*3 10.7 C 0 km/h
263 27-09-2020 21:50:00 10.7 C 9.13 g/m*3 10.7 C 3.2 km/h
264 27-09-2020 21:55:00 10.7 C 9.13 g/m*3 10.7 C 3.2 km/h
265 27-09-2020 22:00:00 10.7 C 9.13 g/m*3 10.7 C 1.6 km/h
266 27-09-2020 22:05:00 10.7 C 9.13 g/m*3 10.7 C 0 km/h
267 27-09-2020 22:10:00 10.7 C 9.13 g/m*3 10.7 C 0 km/h
268 27-09-2020 22:15:00 10.7 C 9.13 g/m*3 10.7 C 0 km/h
269 27-09-2020 22:20:00 10.7 C 9.13 g/m*3 10.7 C 0 km/h
270 27-09-2020 22:25:00 10.7 C 9.13 g/m*3 10.7 C 0 km/h
271 27-09-2020 22:30:00 10.7 C 9.13 g/m*3 10.7 C 0 km/h
272 27-09-2020 22:35:00 10.6 C 9.08 g/m*3 10.6 C 0 km/h
273 27-09-2020 22:40:00 10.6 C 9.08 g/m*3 10.6 C 1.6 km/h
274 27-09-2020 22:45:00 10.6 C 9.08 g/m*3 10.6 C 0 km/h
275 27-09-2020 22:50:00 10.6 C 9.08 g/m*3 10.6 C 0 km/h
Sensor: Nr:Datum:Temp:Abs-Feuchte:Windchill:Wind:
Aussen-T/F 276 27-09-2020 22:55:00 10.6 C 9.08 g/m*3 10.6 C 0 km/h
277 27-09-2020 23:00:00 10.6 C 9.08 g/m*3 10.6 C 1.6 km/h
278 27-09-2020 23:05:00 10.5 C 9.02 g/m*3 10.5 C 3.2 km/h
279 27-09-2020 23:10:00 10.5 C 9.02 g/m*3 10.5 C 0 km/h
280 27-09-2020 23:15:00 10.5 C 9.12 g/m*3 10.5 C 1.6 km/h
281 27-09-2020 23:20:00 10.4 C 9.06 g/m*3 10.4 C 3.2 km/h
282 27-09-2020 23:25:00 10.4 C 9.06 g/m*3 10.4 C 1.6 km/h
283 27-09-2020 23:30:00 10.4 C 9.06 g/m*3 10.4 C 1.6 km/h
284 27-09-2020 23:35:00 10.4 C 9.06 g/m*3 10.4 C 0 km/h
285 27-09-2020 23:40:00 10.4 C 9.06 g/m*3 10.4 C 1.6 km/h
286 27-09-2020 23:45:00 10.4 C 9.06 g/m*3 10.4 C 0 km/h
287 27-09-2020 23:50:00 10.4 C 9.06 g/m*3 10.4 C 0 km/h
288 27-09-2020 23:55:00 10.4 C 9.06 g/m*3 10.4 C 3.2 km/h

Legende:
   Min
   Max


Maximal/Minimal-Werte vom 27.09.2020 - 27.09.2020

Sensor Min Max Avg
Temp
(Aussen-T/F)
8.8 °C
27-09-2020  01:25:00
13.8 °C
27-09-2020  14:30:00
11.01 °C
Abs-Feuchte
(Aussen-T/F)
8.27 g/m*3
27-09-2020  01:25:00
10.1 g/m*3
27-09-2020  13:15:00
9.16 g/m*3
Windchill
(Aussen-T/F)
6.62 C
27-09-2020  02:20:00
13.8 C
27-09-2020  14:30:00
10.84 C

Die Daten stammen von einer Davis Vantage Pro 2 Wetter-Station und werden unter Linux mit der Software wview2wettercgi und aufbereitet. Alle Angaben erfolgen ohne Gewähr für ihre Vollständigkeit oder Richtigkeit.
Kontakt: Rainer Krienke krienke@uni-koblenz.de . Meine Webseiten an der Uni Koblenz oder privat.
Version: $Revision: 0.78 $